sensor_id;sensor_type;location;lat;lon;timestamp;temperature;humidity
4054;DHT22;2042;47.956;9.222;2023-04-07T00:17:26;3.70;1.00
4054;DHT22;2042;47.956;9.222;2023-04-07T00:19:54;3.70;1.00
4054;DHT22;2042;47.956;9.222;2023-04-07T00:22:20;3.70;1.00
4054;DHT22;2042;47.956;9.222;2023-04-07T00:24:46;3.70;1.00
4054;DHT22;2042;47.956;9.222;2023-04-07T00:27:12;3.70;1.00
4054;DHT22;2042;47.956;9.222;2023-04-07T00:29:38;3.70;1.00
4054;DHT22;2042;47.956;9.222;2023-04-07T00:32:05;3.70;1.00
4054;DHT22;2042;47.956;9.222;2023-04-07T00:59:53;3.60;1.00
4054;DHT22;2042;47.956;9.222;2023-04-07T01:02:33;3.60;1.00
4054;DHT22;2042;47.956;9.222;2023-04-07T01:08:25;3.60;1.00
4054;DHT22;2042;47.956;9.222;2023-04-07T01:10:34;3.60;1.00
4054;DHT22;2042;47.956;9.222;2023-04-07T01:13:07;3.60;1.00
4054;DHT22;2042;47.956;9.222;2023-04-07T01:15:35;3.60;1.00
4054;DHT22;2042;47.956;9.222;2023-04-07T01:18:12;3.60;1.00
4054;DHT22;2042;47.956;9.222;2023-04-07T01:20:39;3.60;1.00
4054;DHT22;2042;47.956;9.222;2023-04-07T01:23:06;3.60;1.00
4054;DHT22;2042;47.956;9.222;2023-04-07T01:29:10;3.60;1.00
4054;DHT22;2042;47.956;9.222;2023-04-07T01:31:39;3.60;1.00
4054;DHT22;2042;47.956;9.222;2023-04-07T01:34:08;3.60;1.00
4054;DHT22;2042;47.956;9.222;2023-04-07T01:36:35;3.60;1.00
4054;DHT22;2042;47.956;9.222;2023-04-07T01:39:01;3.60;1.00
4054;DHT22;2042;47.956;9.222;2023-04-07T01:41:27;3.50;1.00
4054;DHT22;2042;47.956;9.222;2023-04-07T01:43:55;3.40;1.00
4054;DHT22;2042;47.956;9.222;2023-04-07T01:46:22;3.40;1.00
4054;DHT22;2042;47.956;9.222;2023-04-07T01:48:48;3.40;1.00
4054;DHT22;2042;47.956;9.222;2023-04-07T01:51:15;3.40;1.00
4054;DHT22;2042;47.956;9.222;2023-04-07T01:53:46;3.40;1.00
4054;DHT22;2042;47.956;9.222;2023-04-07T01:56:12;3.40;1.00
4054;DHT22;2042;47.956;9.222;2023-04-07T01:58:37;3.30;1.00
4054;DHT22;2042;47.956;9.222;2023-04-07T02:01:03;3.40;1.00
4054;DHT22;2042;47.956;9.222;2023-04-07T02:03:51;3.40;1.00
4054;DHT22;2042;47.956;9.222;2023-04-07T02:06:21;3.40;1.00
4054;DHT22;2042;47.956;9.222;2023-04-07T02:08:51;3.40;1.00
4054;DHT22;2042;47.956;9.222;2023-04-07T02:11:20;3.40;1.00
4054;DHT22;2042;47.956;9.222;2023-04-07T02:13:47;3.40;1.00
4054;DHT22;2042;47.956;9.222;2023-04-07T02:16:14;3.50;1.00
4054;DHT22;2042;47.956;9.222;2023-04-07T02:18:43;3.50;1.00
4054;DHT22;2042;47.956;9.222;2023-04-07T02:21:12;3.50;1.00
4054;DHT22;2042;47.956;9.222;2023-04-07T02:23:39;3.50;1.00
4054;DHT22;2042;47.956;9.222;2023-04-07T02:26:05;3.50;1.00
4054;DHT22;2042;47.956;9.222;2023-04-07T02:28:31;3.50;1.00
4054;DHT22;2042;47.956;9.222;2023-04-07T02:30:57;3.50;1.00
4054;DHT22;2042;47.956;9.222;2023-04-07T02:33:23;3.50;1.00
4054;DHT22;2042;47.956;9.222;2023-04-07T02:35:49;3.50;1.00
4054;DHT22;2042;47.956;9.222;2023-04-07T02:38:15;3.50;1.00
4054;DHT22;2042;47.956;9.222;2023-04-07T02:40:40;3.50;1.00
4054;DHT22;2042;47.956;9.222;2023-04-07T02:43:07;3.50;1.00
4054;DHT22;2042;47.956;9.222;2023-04-07T02:45:33;3.50;1.00
4054;DHT22;2042;47.956;9.222;2023-04-07T02:47:59;3.50;1.00
4054;DHT22;2042;47.956;9.222;2023-04-07T02:50:25;3.50;1.00
4054;DHT22;2042;47.956;9.222;2023-04-07T02:52:51;3.50;1.00
4054;DHT22;2042;47.956;9.222;2023-04-07T02:55:16;3.50;1.00
4054;DHT22;2042;47.956;9.222;2023-04-07T02:57:42;3.40;1.00
4054;DHT22;2042;47.956;9.222;2023-04-07T03:00:09;3.40;1.00
4054;DHT22;2042;47.956;9.222;2023-04-07T03:02:35;3.40;1.00
4054;DHT22;2042;47.956;9.222;2023-04-07T03:05:01;3.40;1.00
4054;DHT22;2042;47.956;9.222;2023-04-07T03:07:29;3.40;1.00
4054;DHT22;2042;47.956;9.222;2023-04-07T03:09:57;3.40;1.00
4054;DHT22;2042;47.956;9.222;2023-04-07T03:12:23;3.40;1.00
4054;DHT22;2042;47.956;9.222;2023-04-07T03:14:48;3.30;1.00
4054;DHT22;2042;47.956;9.222;2023-04-07T03:17:16;3.30;1.00
4054;DHT22;2042;47.956;9.222;2023-04-07T03:19:42;3.30;1.00
4054;DHT22;2042;47.956;9.222;2023-04-07T03:22:07;3.30;1.00
4054;DHT22;2042;47.956;9.222;2023-04-07T03:24:33;3.30;1.00
4054;DHT22;2042;47.956;9.222;2023-04-07T03:27:00;3.20;1.00
4054;DHT22;2042;47.956;9.222;2023-04-07T03:29:26;3.20;1.00
4054;DHT22;2042;47.956;9.222;2023-04-07T03:31:52;3.20;1.00
4054;DHT22;2042;47.956;9.222;2023-04-07T03:34:17;3.20;1.00
4054;DHT22;2042;47.956;9.222;2023-04-07T03:36:43;3.20;1.00
4054;DHT22;2042;47.956;9.222;2023-04-07T03:39:09;3.20;1.00
4054;DHT22;2042;47.956;9.222;2023-04-07T03:41:34;3.20;1.00
4054;DHT22;2042;47.956;9.222;2023-04-07T03:44:01;3.20;1.00
4054;DHT22;2042;47.956;9.222;2023-04-07T03:46:26;3.20;1.00
4054;DHT22;2042;47.956;9.222;2023-04-07T03:48:52;3.20;1.00
4054;DHT22;2042;47.956;9.222;2023-04-07T03:51:18;3.10;1.00
4054;DHT22;2042;47.956;9.222;2023-04-07T03:53:43;3.10;1.00
4054;DHT22;2042;47.956;9.222;2023-04-07T03:56:10;3.10;1.00
4054;DHT22;2042;47.956;9.222;2023-04-07T03:58:37;3.10;1.00
4054;DHT22;2042;47.956;9.222;2023-04-07T04:01:03;3.00;1.00
4054;DHT22;2042;47.956;9.222;2023-04-07T04:03:28;3.00;1.00
4054;DHT22;2042;47.956;9.222;2023-04-07T04:05:54;3.00;1.00
4054;DHT22;2042;47.956;9.222;2023-04-07T04:08:20;3.00;1.00
4054;DHT22;2042;47.956;9.222;2023-04-07T04:10:48;3.00;1.00
4054;DHT22;2042;47.956;9.222;2023-04-07T04:13:13;3.00;1.00
4054;DHT22;2042;47.956;9.222;2023-04-07T04:15:39;3.00;1.00
4054;DHT22;2042;47.956;9.222;2023-04-07T04:18:05;3.00;1.00
4054;DHT22;2042;47.956;9.222;2023-04-07T04:20:32;3.00;1.00
4054;DHT22;2042;47.956;9.222;2023-04-07T04:22:58;3.00;1.00
4054;DHT22;2042;47.956;9.222;2023-04-07T04:25:24;3.00;1.00
4054;DHT22;2042;47.956;9.222;2023-04-07T04:27:50;3.00;1.00
4054;DHT22;2042;47.956;9.222;2023-04-07T04:30:17;3.00;1.40
4054;DHT22;2042;47.956;9.222;2023-04-07T04:32:42;3.00;1.50
4054;DHT22;2042;47.956;9.222;2023-04-07T04:35:09;3.00;1.50
4054;DHT22;2042;47.956;9.222;2023-04-07T04:37:34;3.00;1.40
4054;DHT22;2042;47.956;9.222;2023-04-07T04:40:02;3.00;1.40
4054;DHT22;2042;47.956;9.222;2023-04-07T04:42:28;3.00;1.60
4054;DHT22;2042;47.956;9.222;2023-04-07T04:44:57;2.90;1.80
4054;DHT22;2042;47.956;9.222;2023-04-07T04:47:23;2.90;2.00
4054;DHT22;2042;47.956;9.222;2023-04-07T04:49:48;2.90;2.00
4054;DHT22;2042;47.956;9.222;2023-04-07T04:52:14;2.90;2.30
4054;DHT22;2042;47.956;9.222;2023-04-07T04:54:40;2.90;2.90
4054;DHT22;2042;47.956;9.222;2023-04-07T04:57:05;2.90;3.20
4054;DHT22;2042;47.956;9.222;2023-04-07T04:59:32;2.90;3.10
4054;DHT22;2042;47.956;9.222;2023-04-07T05:01:58;2.90;3.10
4054;DHT22;2042;47.956;9.222;2023-04-07T05:04:24;2.90;3.30
4054;DHT22;2042;47.956;9.222;2023-04-07T05:06:51;2.90;3.60
4054;DHT22;2042;47.956;9.222;2023-04-07T05:09:16;2.90;3.80
4054;DHT22;2042;47.956;9.222;2023-04-07T05:11:42;2.90;3.60
4054;DHT22;2042;47.956;9.222;2023-04-07T05:14:08;2.80;2.90
4054;DHT22;2042;47.956;9.222;2023-04-07T05:16:34;2.70;2.70
4054;DHT22;2042;47.956;9.222;2023-04-07T05:19:02;2.70;3.40
4054;DHT22;2042;47.956;9.222;2023-04-07T05:21:28;2.70;4.60
4054;DHT22;2042;47.956;9.222;2023-04-07T05:23:53;2.70;5.20
4054;DHT22;2042;47.956;9.222;2023-04-07T05:26:19;2.70;6.30
4054;DHT22;2042;47.956;9.222;2023-04-07T05:28:47;2.80;7.00
4054;DHT22;2042;47.956;9.222;2023-04-07T05:31:13;2.90;7.80
4054;DHT22;2042;47.956;9.222;2023-04-07T05:33:39;3.00;8.40
4054;DHT22;2042;47.956;9.222;2023-04-07T05:36:05;3.10;9.10
4054;DHT22;2042;47.956;9.222;2023-04-07T05:38:32;3.20;8.70
4054;DHT22;2042;47.956;9.222;2023-04-07T05:40:58;3.40;8.80
4054;DHT22;2042;47.956;9.222;2023-04-07T05:43:24;3.50;8.50
4054;DHT22;2042;47.956;9.222;2023-04-07T05:45:50;3.60;8.50
4054;DHT22;2042;47.956;9.222;2023-04-07T05:48:18;3.70;8.70
4054;DHT22;2042;47.956;9.222;2023-04-07T05:50:44;3.80;8.90
4054;DHT22;2042;47.956;9.222;2023-04-07T06:10:18;4.80;6.40
4054;DHT22;2042;47.956;9.222;2023-04-07T06:12:44;5.00;6.00
4054;DHT22;2042;47.956;9.222;2023-04-07T06:15:10;5.10;5.00
4054;DHT22;2042;47.956;9.222;2023-04-07T06:17:36;5.20;4.10
4054;DHT22;2042;47.956;9.222;2023-04-07T06:20:02;5.40;2.10
4054;DHT22;2042;47.956;9.222;2023-04-07T06:22:29;5.60;1.00
4054;DHT22;2042;47.956;9.222;2023-04-07T06:42:05;7.90;1.00
4054;DHT22;2042;47.956;9.222;2023-04-07T06:44:32;8.40;1.00
4054;DHT22;2042;47.956;9.222;2023-04-07T06:46:58;8.80;1.00
4054;DHT22;2042;47.956;9.222;2023-04-07T06:49:24;9.10;1.00
4054;DHT22;2042;47.956;9.222;2023-04-07T06:51:50;9.50;1.00
4054;DHT22;2042;47.956;9.222;2023-04-07T06:54:18;9.80;1.00
4054;DHT22;2042;47.956;9.222;2023-04-07T08:16:06;17.30;1.00
4054;DHT22;2042;47.956;9.222;2023-04-07T08:18:31;16.70;1.00
4054;DHT22;2042;47.956;9.222;2023-04-07T08:20:58;16.40;1.00
4054;DHT22;2042;47.956;9.222;2023-04-07T08:23:23;15.80;1.00
4054;DHT22;2042;47.956;9.222;2023-04-07T08:25:50;15.40;1.00
4054;DHT22;2042;47.956;9.222;2023-04-07T08:28:17;15.30;1.00
4054;DHT22;2042;47.956;9.222;2023-04-07T08:30:43;15.20;1.00
4054;DHT22;2042;47.956;9.222;2023-04-07T08:33:09;15.30;1.00
4054;DHT22;2042;47.956;9.222;2023-04-07T08:35:35;15.90;1.00
4054;DHT22;2042;47.956;9.222;2023-04-07T08:38:03;16.60;1.00
4054;DHT22;2042;47.956;9.222;2023-04-07T08:40:32;17.20;1.00
4054;DHT22;2042;47.956;9.222;2023-04-07T08:42:59;17.90;1.00
4054;DHT22;2042;47.956;9.222;2023-04-07T08:45:25;18.30;1.00
4054;DHT22;2042;47.956;9.222;2023-04-07T08:47:54;18.80;1.00
4054;DHT22;2042;47.956;9.222;2023-04-07T08:50:25;19.50;1.00
4054;DHT22;2042;47.956;9.222;2023-04-07T08:52:56;20.10;1.00
4054;DHT22;2042;47.956;9.222;2023-04-07T08:55:22;20.70;1.00
4054;DHT22;2042;47.956;9.222;2023-04-07T08:57:49;21.00;1.00
4054;DHT22;2042;47.956;9.222;2023-04-07T09:00:17;20.80;1.00
4054;DHT22;2042;47.956;9.222;2023-04-07T09:02:44;19.90;1.00
4054;DHT22;2042;47.956;9.222;2023-04-07T09:05:11;19.00;1.00
4054;DHT22;2042;47.956;9.222;2023-04-07T09:07:38;18.30;1.00
4054;DHT22;2042;47.956;9.222;2023-04-07T09:10:06;17.40;1.00
4054;DHT22;2042;47.956;9.222;2023-04-07T09:12:34;16.70;1.00
4054;DHT22;2042;47.956;9.222;2023-04-07T09:15:00;16.10;1.00
4054;DHT22;2042;47.956;9.222;2023-04-07T09:17:27;15.90;1.00
4054;DHT22;2042;47.956;9.222;2023-04-07T09:19:57;15.70;1.00
4054;DHT22;2042;47.956;9.222;2023-04-07T09:25:34;15.10;1.00
4054;DHT22;2042;47.956;9.222;2023-04-07T09:34:45;14.40;1.00
4054;DHT22;2042;47.956;9.222;2023-04-07T09:37:21;14.30;1.00
4054;DHT22;2042;47.956;9.222;2023-04-07T09:39:50;14.20;1.00
4054;DHT22;2042;47.956;9.222;2023-04-07T09:42:16;14.10;1.00
4054;DHT22;2042;47.956;9.222;2023-04-07T09:44:43;14.00;1.00
4054;DHT22;2042;47.956;9.222;2023-04-07T09:47:09;13.90;1.00
4054;DHT22;2042;47.956;9.222;2023-04-07T11:02:41;16.10;1.00
4054;DHT22;2042;47.956;9.222;2023-04-07T11:05:20;16.70;1.00
4054;DHT22;2042;47.956;9.222;2023-04-07T11:07:50;17.50;1.00
4054;DHT22;2042;47.956;9.222;2023-04-07T11:10:17;18.60;1.00
4054;DHT22;2042;47.956;9.222;2023-04-07T11:13:01;19.60;1.00
4054;DHT22;2042;47.956;9.222;2023-04-07T11:15:29;19.90;1.00
4054;DHT22;2042;47.956;9.222;2023-04-07T11:18:13;19.40;1.00
4054;DHT22;2042;47.956;9.222;2023-04-07T11:20:45;19.00;1.00
4054;DHT22;2042;47.956;9.222;2023-04-07T11:23:14;18.70;1.00
4054;DHT22;2042;47.956;9.222;2023-04-07T11:25:45;18.40;1.00
4054;DHT22;2042;47.956;9.222;2023-04-07T11:28:14;18.20;1.00
4054;DHT22;2042;47.956;9.222;2023-04-07T11:30:49;17.90;1.00
4054;DHT22;2042;47.956;9.222;2023-04-07T11:33:22;17.30;1.00
4054;DHT22;2042;47.956;9.222;2023-04-07T11:35:54;17.10;1.00
4054;DHT22;2042;47.956;9.222;2023-04-07T11:38:23;17.10;1.00
4054;DHT22;2042;47.956;9.222;2023-04-07T11:40:49;17.10;1.00
4054;DHT22;2042;47.956;9.222;2023-04-07T11:43:23;17.30;1.00
4054;DHT22;2042;47.956;9.222;2023-04-07T11:46:14;17.60;1.00
4054;DHT22;2042;47.956;9.222;2023-04-07T11:48:43;17.70;1.00
4054;DHT22;2042;47.956;9.222;2023-04-07T11:51:22;17.50;1.00
4054;DHT22;2042;47.956;9.222;2023-04-07T11:53:55;17.20;1.00
4054;DHT22;2042;47.956;9.222;2023-04-07T11:56:21;17.00;1.00
4054;DHT22;2042;47.956;9.222;2023-04-07T11:58:53;16.30;1.00
4054;DHT22;2042;47.956;9.222;2023-04-07T12:01:20;15.60;1.00
4054;DHT22;2042;47.956;9.222;2023-04-07T12:04:00;15.20;1.00
4054;DHT22;2042;47.956;9.222;2023-04-07T12:06:34;14.80;1.00
4054;DHT22;2042;47.956;9.222;2023-04-07T12:09:04;14.60;1.00
4054;DHT22;2042;47.956;9.222;2023-04-07T12:11:32;14.80;1.00
4054;DHT22;2042;47.956;9.222;2023-04-07T12:13:59;14.80;1.00
4054;DHT22;2042;47.956;9.222;2023-04-07T12:16:25;14.50;1.00
4054;DHT22;2042;47.956;9.222;2023-04-07T12:18:53;14.40;1.00
4054;DHT22;2042;47.956;9.222;2023-04-07T12:21:20;14.20;1.00
4054;DHT22;2042;47.956;9.222;2023-04-07T12:23:46;14.00;1.00
4054;DHT22;2042;47.956;9.222;2023-04-07T12:26:14;14.20;1.00
4054;DHT22;2042;47.956;9.222;2023-04-07T12:28:40;14.40;1.00
4054;DHT22;2042;47.956;9.222;2023-04-07T12:31:09;14.50;1.00
4054;DHT22;2042;47.956;9.222;2023-04-07T12:33:37;14.70;1.00
4054;DHT22;2042;47.956;9.222;2023-04-07T12:36:07;15.00;1.00
4054;DHT22;2042;47.956;9.222;2023-04-07T12:38:34;15.20;1.00
4054;DHT22;2042;47.956;9.222;2023-04-07T12:40:59;15.40;1.00
4054;DHT22;2042;47.956;9.222;2023-04-07T12:43:30;15.80;1.00
4054;DHT22;2042;47.956;9.222;2023-04-07T12:45:57;16.10;1.00
4054;DHT22;2042;47.956;9.222;2023-04-07T12:48:26;16.40;1.00
4054;DHT22;2042;47.956;9.222;2023-04-07T12:50:53;16.50;1.00
4054;DHT22;2042;47.956;9.222;2023-04-07T12:53:19;16.60;1.00
4054;DHT22;2042;47.956;9.222;2023-04-07T12:55:47;16.80;1.00
4054;DHT22;2042;47.956;9.222;2023-04-07T12:58:15;16.90;1.00
4054;DHT22;2042;47.956;9.222;2023-04-07T13:00:44;17.00;1.00
4054;DHT22;2042;47.956;9.222;2023-04-07T13:03:11;17.20;1.00
4054;DHT22;2042;47.956;9.222;2023-04-07T13:05:37;17.30;1.00
4054;DHT22;2042;47.956;9.222;2023-04-07T13:08:03;17.00;1.00
4054;DHT22;2042;47.956;9.222;2023-04-07T13:10:30;16.40;1.00
4054;DHT22;2042;47.956;9.222;2023-04-07T13:12:56;15.70;1.00
4054;DHT22;2042;47.956;9.222;2023-04-07T13:15:22;15.00;1.00
4054;DHT22;2042;47.956;9.222;2023-04-07T13:17:48;14.20;1.00
4054;DHT22;2042;47.956;9.222;2023-04-07T13:20:16;13.50;1.00
4054;DHT22;2042;47.956;9.222;2023-04-07T13:22:45;12.70;1.00
4054;DHT22;2042;47.956;9.222;2023-04-07T13:25:14;12.20;1.00
4054;DHT22;2042;47.956;9.222;2023-04-07T13:27:41;11.80;1.00
4054;DHT22;2042;47.956;9.222;2023-04-07T13:30:10;11.30;1.00
4054;DHT22;2042;47.956;9.222;2023-04-07T13:32:37;10.90;1.00
4054;DHT22;2042;47.956;9.222;2023-04-07T13:35:03;10.70;1.00
4054;DHT22;2042;47.956;9.222;2023-04-07T13:37:30;10.50;1.00
4054;DHT22;2042;47.956;9.222;2023-04-07T13:39:56;10.60;1.00
4054;DHT22;2042;47.956;9.222;2023-04-07T13:42:23;10.80;1.00
4054;DHT22;2042;47.956;9.222;2023-04-07T13:44:49;11.20;1.00
4054;DHT22;2042;47.956;9.222;2023-04-07T13:47:22;11.70;1.00
4054;DHT22;2042;47.956;9.222;2023-04-07T13:49:50;12.10;1.00
4054;DHT22;2042;47.956;9.222;2023-04-07T13:52:16;12.20;1.00
4054;DHT22;2042;47.956;9.222;2023-04-07T13:54:42;12.30;1.00
4054;DHT22;2042;47.956;9.222;2023-04-07T13:57:08;12.50;1.00
4054;DHT22;2042;47.956;9.222;2023-04-07T13:59:34;12.90;1.00
4054;DHT22;2042;47.956;9.222;2023-04-07T14:02:00;13.50;1.00
4054;DHT22;2042;47.956;9.222;2023-04-07T14:04:26;13.90;1.00
4054;DHT22;2042;47.956;9.222;2023-04-07T14:06:52;14.10;1.00
4054;DHT22;2042;47.956;9.222;2023-04-07T14:09:18;14.20;1.00
4054;DHT22;2042;47.956;9.222;2023-04-07T14:11:44;14.20;1.00
4054;DHT22;2042;47.956;9.222;2023-04-07T14:14:10;14.30;1.00
4054;DHT22;2042;47.956;9.222;2023-04-07T14:16:35;14.60;1.00
4054;DHT22;2042;47.956;9.222;2023-04-07T14:19:02;14.70;1.00
4054;DHT22;2042;47.956;9.222;2023-04-07T14:21:29;14.60;1.00
4054;DHT22;2042;47.956;9.222;2023-04-07T14:23:55;14.60;1.00
4054;DHT22;2042;47.956;9.222;2023-04-07T14:26:21;14.60;1.00
4054;DHT22;2042;47.956;9.222;2023-04-07T14:28:47;14.40;1.00
4054;DHT22;2042;47.956;9.222;2023-04-07T14:31:15;14.20;1.00
4054;DHT22;2042;47.956;9.222;2023-04-07T14:33:45;14.20;1.00
4054;DHT22;2042;47.956;9.222;2023-04-07T14:36:15;13.90;1.00
4054;DHT22;2042;47.956;9.222;2023-04-07T14:38:42;13.50;1.00
4054;DHT22;2042;47.956;9.222;2023-04-07T14:41:08;13.30;1.00
4054;DHT22;2042;47.956;9.222;2023-04-07T14:43:35;13.00;1.00
4054;DHT22;2042;47.956;9.222;2023-04-07T14:46:01;12.70;1.00
4054;DHT22;2042;47.956;9.222;2023-04-07T14:48:27;12.20;1.00
4054;DHT22;2042;47.956;9.222;2023-04-07T14:50:53;12.00;1.00
4054;DHT22;2042;47.956;9.222;2023-04-07T14:53:19;11.70;1.00
4054;DHT22;2042;47.956;9.222;2023-04-07T14:55:46;11.50;1.00
4054;DHT22;2042;47.956;9.222;2023-04-07T14:58:12;11.20;1.00
4054;DHT22;2042;47.956;9.222;2023-04-07T15:00:38;10.90;1.00
4054;DHT22;2042;47.956;9.222;2023-04-07T15:03:04;10.60;1.00
4054;DHT22;2042;47.956;9.222;2023-04-07T15:05:32;10.40;1.00
4054;DHT22;2042;47.956;9.222;2023-04-07T15:08:00;10.30;1.00
4054;DHT22;2042;47.956;9.222;2023-04-07T15:10:26;10.30;1.00
4054;DHT22;2042;47.956;9.222;2023-04-07T15:12:52;10.40;1.00
4054;DHT22;2042;47.956;9.222;2023-04-07T15:15:18;10.40;1.00
4054;DHT22;2042;47.956;9.222;2023-04-07T15:17:46;10.40;1.00
4054;DHT22;2042;47.956;9.222;2023-04-07T15:20:12;10.40;1.00
4054;DHT22;2042;47.956;9.222;2023-04-07T15:22:39;10.40;1.00
4054;DHT22;2042;47.956;9.222;2023-04-07T15:25:05;10.30;1.00
4054;DHT22;2042;47.956;9.222;2023-04-07T15:27:31;10.10;1.00
4054;DHT22;2042;47.956;9.222;2023-04-07T15:29:57;10.00;1.00
4054;DHT22;2042;47.956;9.222;2023-04-07T15:32:23;9.90;1.00
4054;DHT22;2042;47.956;9.222;2023-04-07T15:34:49;9.80;1.00
4054;DHT22;2042;47.956;9.222;2023-04-07T15:37:15;9.60;1.00
4054;DHT22;2042;47.956;9.222;2023-04-07T15:39:44;9.40;1.00
4054;DHT22;2042;47.956;9.222;2023-04-07T15:42:10;9.30;1.00
4054;DHT22;2042;47.956;9.222;2023-04-07T15:44:38;9.30;1.00
4054;DHT22;2042;47.956;9.222;2023-04-07T15:47:05;9.30;1.00
4054;DHT22;2042;47.956;9.222;2023-04-07T15:49:32;9.40;1.00
4054;DHT22;2042;47.956;9.222;2023-04-07T15:52:00;9.50;1.00
4054;DHT22;2042;47.956;9.222;2023-04-07T15:54:26;9.50;1.00
4054;DHT22;2042;47.956;9.222;2023-04-07T15:56:52;9.50;1.00
4054;DHT22;2042;47.956;9.222;2023-04-07T15:59:18;9.50;1.00
4054;DHT22;2042;47.956;9.222;2023-04-07T16:01:45;9.50;1.00
4054;DHT22;2042;47.956;9.222;2023-04-07T16:04:11;9.40;1.00
4054;DHT22;2042;47.956;9.222;2023-04-07T16:06:37;9.40;1.00
4054;DHT22;2042;47.956;9.222;2023-04-07T16:09:03;9.30;1.00
4054;DHT22;2042;47.956;9.222;2023-04-07T16:11:30;9.30;1.00
4054;DHT22;2042;47.956;9.222;2023-04-07T16:13:57;9.20;1.00
4054;DHT22;2042;47.956;9.222;2023-04-07T16:16:24;9.20;1.00
4054;DHT22;2042;47.956;9.222;2023-04-07T16:18:51;9.10;1.00
4054;DHT22;2042;47.956;9.222;2023-04-07T16:21:20;9.10;1.00
4054;DHT22;2042;47.956;9.222;2023-04-07T16:23:48;8.90;1.00
